Time;durP1;ratioP1;P1;durP2;ratioP2;P2;SDS_P1;SDS_P2;PMS_P1;PMS_P2;Temp;Humidity;BMP_temperature;BMP_pressure;BME280_temperature;BME280_humidity;BME280_pressure;Samples;Min_cycle;Max_cycle;Signal;HPM_P1;HPM_P2
2022/01/05 00:01:00;;;;;;;11.07;2.03;;;1.50;99.90;;;;;;5015990;28;20050;-70
2022/01/05 00:03:26;;;;;;;8.13;1.95;;;1.50;99.90;;;;;;4996465;28;20588;-71
2022/01/05 00:05:51;;;;;;;8.13;2.08;;;1.50;99.90;;;;;;5015952;28;20129;-69
2022/01/05 00:08:18;;;;;;;8.77;2.03;;;1.50;99.90;;;;;;5016151;28;20042;-69
2022/01/05 00:10:44;;;;;;;16.00;2.50;;;1.50;99.90;;;;;;4998645;28;20054;-69
2022/01/05 00:13:10;;;;;;;9.98;2.03;;;1.50;99.90;;;;;;5016700;28;20356;-69
2022/01/05 00:15:35;;;;;;;12.85;3.15;;;1.50;99.90;;;;;;5016257;28;20060;-70
2022/01/05 00:18:01;;;;;;;11.13;2.22;;;1.50;99.90;;;;;;5016018;28;20158;-71
2022/01/05 00:20:26;;;;;;;17.38;2.50;;;1.60;99.90;;;;;;5015989;28;20062;-68
2022/01/05 00:22:52;;;;;;;15.70;2.60;;;1.50;99.90;;;;;;4996838;28;20129;-71
2022/01/05 00:25:18;;;;;;;17.23;2.60;;;1.50;99.90;;;;;;5008010;28;20084;-70
2022/01/05 00:27:43;;;;;;;11.32;2.20;;;1.50;99.90;;;;;;4984397;28;20078;-71
2022/01/05 00:30:09;;;;;;;19.17;2.50;;;1.50;99.90;;;;;;5015622;28;20423;-68
2022/01/05 00:32:35;;;;;;;13.75;2.50;;;1.50;99.90;;;;;;5001797;28;20045;-71
2022/01/05 00:35:01;;;;;;;14.43;2.55;;;1.50;99.90;;;;;;5015694;28;20044;-70
2022/01/05 00:37:27;;;;;;;12.18;2.40;;;1.50;99.90;;;;;;4999324;28;20120;-69
2022/01/05 00:39:53;;;;;;;12.27;2.55;;;1.40;99.90;;;;;;4996518;28;20046;-69
2022/01/05 00:42:18;;;;;;;16.13;3.15;;;1.40;99.90;;;;;;5010753;28;20041;-70
2022/01/05 00:44:44;;;;;;;15.02;2.92;;;1.40;99.90;;;;;;5009266;28;20057;-70
2022/01/05 00:47:09;;;;;;;12.98;2.33;;;1.40;99.90;;;;;;4995999;28;20366;-69
2022/01/05 00:49:35;;;;;;;13.30;2.88;;;1.40;99.90;;;;;;4997868;28;20522;-71
2022/01/05 00:52:00;;;;;;;11.80;2.30;;;1.40;99.90;;;;;;5005791;28;20439;-68
2022/01/05 00:54:26;;;;;;;13.27;2.22;;;1.40;99.90;;;;;;4993053;28;20474;-70
2022/01/05 00:56:51;;;;;;;20.30;3.15;;;1.40;99.90;;;;;;4997646;28;20054;-69
2022/01/05 00:59:17;;;;;;;12.77;3.10;;;1.40;99.90;;;;;;5011561;28;20072;-70
2022/01/05 01:01:43;;;;;;;18.75;2.60;;;1.50;99.90;;;;;;5002550;28;20344;-70
2022/01/05 01:04:08;;;;;;;18.73;2.83;;;1.50;99.90;;;;;;5000210;28;20347;-70
2022/01/05 01:06:34;;;;;;;12.82;2.65;;;1.60;99.90;;;;;;5004388;28;20053;-69
2022/01/05 01:09:00;;;;;;;17.15;2.55;;;1.90;99.90;;;;;;5008945;28;20434;-70
2022/01/05 01:11:26;;;;;;;23.55;2.83;;;1.60;99.90;;;;;;5004184;28;20128;-70
2022/01/05 01:13:51;;;;;;;25.73;2.97;;;1.60;99.90;;;;;;5017712;28;20042;-68
2022/01/05 01:16:19;;;;;;;22.83;4.05;;;1.70;99.90;;;;;;5014626;28;20046;-71
2022/01/05 01:18:45;;;;;;;16.08;3.35;;;1.60;99.90;;;;;;5014749;28;20046;-68
2022/01/05 01:21:10;;;;;;;11.73;2.50;;;1.70;99.90;;;;;;4991816;28;20129;-68
2022/01/05 01:23:37;;;;;;;16.90;3.05;;;1.80;99.90;;;;;;4978183;28;20058;-68
2022/01/05 01:26:03;;;;;;;16.88;3.33;;;1.70;99.90;;;;;;5000079;28;20054;-71
2022/01/05 01:28:28;;;;;;;17.17;3.28;;;1.70;99.90;;;;;;5010509;28;20046;-70
2022/01/05 01:30:54;;;;;;;23.42;3.67;;;1.70;99.90;;;;;;4993827;28;20034;-70
2022/01/05 01:33:20;;;;;;;15.10;2.60;;;1.70;99.90;;;;;;4978763;28;20105;-72
2022/01/05 01:35:46;;;;;;;24.30;3.55;;;1.70;99.90;;;;;;5009552;28;20355;-72
2022/01/05 01:38:11;;;;;;;18.15;2.85;;;1.80;99.90;;;;;;5014868;28;20050;-69
2022/01/05 01:40:37;;;;;;;15.48;3.30;;;1.80;99.90;;;;;;4978136;28;20073;-71
2022/01/05 01:43:03;;;;;;;15.45;3.10;;;1.80;99.90;;;;;;4995585;28;20046;-70
2022/01/05 01:45:28;;;;;;;17.95;2.75;;;1.80;99.90;;;;;;4996493;28;20053;-70
2022/01/05 01:47:54;;;;;;;17.50;2.95;;;1.80;99.90;;;;;;4994688;28;20133;-70
2022/01/05 01:50:20;;;;;;;14.82;2.40;;;1.80;99.90;;;;;;4995510;28;20502;-71
2022/01/05 01:52:45;;;;;;;15.35;2.97;;;1.80;99.90;;;;;;4987400;28;20086;-70
2022/01/05 01:55:12;;;;;;;12.00;2.72;;;1.70;99.90;;;;;;5004598;28;20111;-69
2022/01/05 01:57:41;;;;;;;14.60;3.97;;;1.70;99.90;;;;;;5015249;28;20034;-70
2022/01/05 02:00:07;;;;;;;13.05;2.45;;;1.70;99.90;;;;;;4988324;28;20147;-70
2022/01/05 02:02:33;;;;;;;12.63;2.88;;;1.70;99.90;;;;;;4984207;28;20069;-69
2022/01/05 02:04:59;;;;;;;15.90;3.30;;;1.70;99.90;;;;;;5006204;28;20450;-70
2022/01/05 02:07:25;;;;;;;12.77;3.05;;;1.60;99.90;;;;;;4997144;28;20066;-70
2022/01/05 02:09:50;;;;;;;15.45;3.25;;;1.60;99.90;;;;;;4995236;28;20112;-71
2022/01/05 02:12:16;;;;;;;13.93;2.90;;;1.60;99.90;;;;;;4994957;28;20344;-71
2022/01/05 02:14:41;;;;;;;17.95;2.67;;;1.60;99.90;;;;;;5001651;28;20046;-69
2022/01/05 02:17:20;;;;;;;14.43;2.47;;;1.60;99.90;;;;;;5014677;28;20049;-72
2022/01/05 02:19:45;;;;;;;15.70;2.78;;;1.60;99.90;;;;;;5015507;28;20048;-70
2022/01/05 02:22:11;;;;;;;14.52;2.50;;;1.60;99.90;;;;;;5000972;28;20136;-68
2022/01/05 02:24:36;;;;;;;16.40;2.55;;;1.60;99.90;;;;;;5009887;28;20042;-70
2022/01/05 02:27:02;;;;;;;12.43;2.85;;;1.60;99.90;;;;;;5009188;28;20081;-70
2022/01/05 02:29:28;;;;;;;14.65;2.60;;;1.60;99.90;;;;;;5017998;28;20077;-70
2022/01/05 02:31:54;;;;;;;16.83;3.03;;;1.60;99.90;;;;;;5000859;28;20107;-69
2022/01/05 02:34:20;;;;;;;16.90;2.70;;;1.60;99.90;;;;;;5013516;28;20042;-72
2022/01/05 02:36:45;;;;;;;17.45;2.80;;;1.60;99.90;;;;;;4998500;28;20042;-69
2022/01/05 02:39:11;;;;;;;15.18;3.15;;;1.60;99.90;;;;;;5014605;28;20057;-70
2022/01/05 02:41:37;;;;;;;23.67;3.28;;;1.60;99.90;;;;;;5013024;28;20056;-69
2022/01/05 02:44:02;;;;;;;19.27;3.00;;;1.60;99.90;;;;;;5014615;28;20050;-70
2022/01/05 02:46:28;;;;;;;16.17;2.83;;;1.60;99.90;;;;;;5013625;28;20377;-71
2022/01/05 02:48:54;;;;;;;17.25;3.28;;;1.60;99.90;;;;;;5018193;28;20056;-69
2022/01/05 02:51:21;;;;;;;16.60;2.80;;;1.60;99.90;;;;;;5008448;28;20501;-70
2022/01/05 02:53:47;;;;;;;16.80;3.05;;;1.60;99.90;;;;;;5002623;28;20039;-70
2022/01/05 02:56:13;;;;;;;15.55;3.08;;;1.60;99.90;;;;;;5004209;28;20037;-70
2022/01/05 02:58:39;;;;;;;20.15;3.03;;;1.70;99.90;;;;;;5005284;28;20046;-69
2022/01/05 03:01:05;;;;;;;12.93;2.78;;;1.70;99.90;;;;;;4969642;28;20062;-70
2022/01/05 03:03:31;;;;;;;14.70;2.80;;;1.70;99.90;;;;;;5013193;28;20125;-68
2022/01/05 03:05:57;;;;;;;18.17;3.17;;;1.80;99.90;;;;;;4997696;28;20133;-70
2022/01/05 03:08:23;;;;;;;18.00;2.88;;;1.80;99.90;;;;;;5007841;28;20042;-69
2022/01/05 03:10:48;;;;;;;18.67;3.35;;;1.80;99.90;;;;;;5005796;28;20060;-69
2022/01/05 03:13:14;;;;;;;16.90;3.05;;;1.80;99.90;;;;;;5005376;28;20042;-69
2022/01/05 03:15:40;;;;;;;19.08;2.70;;;1.80;99.90;;;;;;5011918;28;20045;-69
2022/01/05 03:18:06;;;;;;;17.05;3.03;;;1.90;99.90;;;;;;4998075;28;20050;-70
2022/01/05 03:20:34;;;;;;;20.38;2.72;;;1.90;99.90;;;;;;4986322;28;20505;-70
2022/01/05 03:23:01;;;;;;;22.05;3.25;;;2.00;99.90;;;;;;4997708;28;20367;-70
2022/01/05 03:25:27;;;;;;;22.25;3.30;;;2.10;99.90;;;;;;5014533;28;20049;-70
2022/01/05 03:27:53;;;;;;;17.15;2.60;;;2.10;99.90;;;;;;4989004;28;20122;-70
2022/01/05 03:30:26;;;;;;;14.57;3.10;;;2.20;99.90;;;;;;4997952;28;20184;-70
2022/01/05 03:35:26;;;;;;;14.63;2.55;;;2.30;99.90;;;;;;4997384;28;20133;-69
2022/01/05 03:37:52;;;;;;;18.13;3.00;;;2.40;99.90;;;;;;4997500;28;20042;-68
2022/01/05 03:40:18;;;;;;;16.60;3.10;;;2.40;99.90;;;;;;5007703;28;20052;-69
2022/01/05 03:42:44;;;;;;;18.27;3.42;;;2.40;99.90;;;;;;5005409;28;20041;-71
2022/01/05 03:45:09;;;;;;;21.88;3.47;;;2.40;99.90;;;;;;5011970;28;20042;-70
2022/01/05 03:47:36;;;;;;;21.85;3.25;;;2.50;99.90;;;;;;5016512;28;20050;-70
2022/01/05 03:50:01;;;;;;;24.13;3.55;;;2.60;99.90;;;;;;5007539;28;20054;-71
2022/01/05 03:52:27;;;;;;;18.17;3.50;;;2.50;99.90;;;;;;4997095;28;20068;-71
2022/01/05 03:54:52;;;;;;;18.80;3.40;;;2.50;99.90;;;;;;5004682;28;20453;-69
2022/01/05 03:57:18;;;;;;;23.98;3.42;;;2.60;99.90;;;;;;5013336;28;20051;-69
2022/01/05 03:59:44;;;;;;;27.13;3.67;;;2.60;99.90;;;;;;4997256;28;20057;-71
2022/01/05 04:02:09;;;;;;;12.40;2.67;;;2.50;99.90;;;;;;5010472;28;20046;-69
2022/01/05 04:04:35;;;;;;;18.63;3.63;;;2.50;99.90;;;;;;5000479;28;20057;-68
2022/01/05 04:07:00;;;;;;;12.65;3.22;;;2.50;99.90;;;;;;4986022;28;20046;-71
2022/01/05 04:09:26;;;;;;;18.27;3.20;;;2.50;99.90;;;;;;4997052;28;20066;-72
2022/01/05 04:11:51;;;;;;;19.35;4.28;;;2.50;99.90;;;;;;5015224;28;20065;-72
2022/01/05 04:14:17;;;;;;;13.65;2.95;;;2.50;99.90;;;;;;5005430;28;20129;-70
2022/01/05 04:16:42;;;;;;;12.82;2.45;;;2.60;99.90;;;;;;4998808;28;20420;-70
2022/01/05 04:19:08;;;;;;;22.15;3.17;;;2.60;99.90;;;;;;5014480;28;20054;-71
2022/01/05 04:21:33;;;;;;;19.40;3.33;;;2.70;99.90;;;;;;5011355;28;20374;-70
2022/01/05 04:23:59;;;;;;;14.43;2.92;;;2.80;99.90;;;;;;5015172;28;20128;-70
2022/01/05 04:26:25;;;;;;;12.13;2.42;;;2.80;99.90;;;;;;4994977;28;20133;-70
2022/01/05 04:28:50;;;;;;;10.18;2.80;;;2.90;99.90;;;;;;4996676;28;20050;-69
2022/01/05 04:31:16;;;;;;;10.93;3.47;;;3.00;99.90;;;;;;5015431;28;20042;-69
2022/01/05 04:33:42;;;;;;;14.35;2.63;;;3.10;99.90;;;;;;5015970;28;20104;-70
2022/01/05 04:36:07;;;;;;;12.25;2.35;;;3.20;99.90;;;;;;5011584;28;20050;-71
2022/01/05 04:38:34;;;;;;;12.27;2.35;;;3.30;99.90;;;;;;5010920;28;20045;-68
2022/01/05 04:41:00;;;;;;;15.73;2.80;;;3.30;99.90;;;;;;5015644;28;20061;-70
2022/01/05 04:43:25;;;;;;;16.17;2.60;;;3.30;99.90;;;;;;5014657;28;20034;-71
2022/01/05 04:45:51;;;;;;;14.48;2.75;;;3.20;99.90;;;;;;5015276;28;20045;-69
2022/01/05 04:48:17;;;;;;;17.20;2.63;;;3.20;99.90;;;;;;5015470;28;20085;-70
2022/01/05 04:50:43;;;;;;;18.13;2.40;;;3.20;99.90;;;;;;5015227;28;20062;-71
2022/01/05 04:53:11;;;;;;;13.38;2.92;;;3.10;99.90;;;;;;5014949;28;20049;-69
2022/01/05 04:55:38;;;;;;;19.92;2.80;;;3.10;99.90;;;;;;5015096;28;20045;-71
2022/01/05 04:58:04;;;;;;;17.23;2.80;;;3.20;99.90;;;;;;5015795;28;20050;-70
2022/01/05 05:00:29;;;;;;;19.13;3.22;;;3.10;99.90;;;;;;4996982;28;20574;-70
2022/01/05 05:02:55;;;;;;;18.25;2.60;;;3.10;99.90;;;;;;4996619;28;20595;-69
2022/01/05 05:05:20;;;;;;;13.55;2.38;;;3.20;99.90;;;;;;5014962;28;20046;-70
2022/01/05 05:07:46;;;;;;;17.88;2.88;;;3.20;99.90;;;;;;5014988;28;20073;-68
2022/01/05 05:10:11;;;;;;;14.85;2.28;;;3.20;99.90;;;;;;5015208;28;20462;-69
2022/01/05 05:12:37;;;;;;;13.77;2.47;;;3.10;99.90;;;;;;4996829;28;20060;-69
2022/01/05 05:15:03;;;;;;;8.85;2.20;;;3.10;99.90;;;;;;5015275;28;20466;-68
2022/01/05 05:17:28;;;;;;;15.15;3.17;;;3.00;99.90;;;;;;4994937;28;20043;-70
2022/01/05 05:19:54;;;;;;;10.80;2.40;;;3.00;99.90;;;;;;5015723;28;20045;-68
2022/01/05 05:22:22;;;;;;;19.25;2.78;;;3.00;99.90;;;;;;5002710;28;20054;-69
2022/01/05 05:24:48;;;;;;;17.02;2.45;;;3.00;99.90;;;;;;4992329;28;20052;-69
2022/01/05 05:27:14;;;;;;;14.23;2.47;;;3.00;99.90;;;;;;5008102;28;20056;-67
2022/01/05 05:29:39;;;;;;;23.73;3.40;;;2.90;99.90;;;;;;5014821;28;20052;-68
2022/01/05 05:32:05;;;;;;;22.00;3.40;;;2.90;99.90;;;;;;4994398;28;20058;-69
2022/01/05 05:34:31;;;;;;;10.40;2.72;;;3.00;99.90;;;;;;4995763;28;20046;-69
2022/01/05 05:36:57;;;;;;;20.60;3.60;;;3.00;99.90;;;;;;4994905;28;20054;-70
2022/01/05 05:39:22;;;;;;;19.27;3.33;;;3.10;99.90;;;;;;4995627;28;20358;-72
2022/01/05 05:41:48;;;;;;;16.85;2.90;;;3.10;99.90;;;;;;4995369;28;20046;-70
2022/01/05 05:44:13;;;;;;;24.25;3.17;;;3.20;99.90;;;;;;5002249;28;20121;-72
2022/01/05 05:46:39;;;;;;;28.02;4.03;;;3.30;99.90;;;;;;5014643;28;20042;-68
2022/01/05 05:49:04;;;;;;;22.88;3.65;;;3.40;99.90;;;;;;5015132;28;20042;-71
2022/01/05 05:51:30;;;;;;;28.10;3.55;;;3.40;99.90;;;;;;4997705;28;20132;-69
2022/01/05 05:53:55;;;;;;;20.42;3.03;;;3.50;99.90;;;;;;5015535;28;20151;-71
2022/01/05 05:56:21;;;;;;;26.92;3.53;;;3.50;99.90;;;;;;5019256;28;20054;-69
2022/01/05 05:58:46;;;;;;;15.27;3.20;;;3.50;99.90;;;;;;5019152;28;20096;-69
2022/01/05 06:01:12;;;;;;;18.23;3.33;;;3.60;99.90;;;;;;5019133;28;20518;-69
2022/01/05 06:03:37;;;;;;;16.80;3.30;;;3.60;99.90;;;;;;5001631;28;20088;-70
2022/01/05 06:06:03;;;;;;;23.08;3.72;;;3.60;99.90;;;;;;5018871;28;20111;-71
2022/01/05 06:08:28;;;;;;;24.35;3.97;;;3.70;99.90;;;;;;5018762;28;20038;-70
2022/01/05 06:10:54;;;;;;;29.55;3.70;;;3.70;99.90;;;;;;5001247;28;20046;-70
2022/01/05 06:13:19;;;;;;;21.92;3.38;;;3.70;99.90;;;;;;4991558;28;20054;-69
2022/01/05 06:15:45;;;;;;;24.33;3.60;;;3.70;99.90;;;;;;4999096;28;20058;-69
2022/01/05 06:18:11;;;;;;;26.70;4.18;;;3.70;99.90;;;;;;4982131;28;20133;-70
2022/01/05 06:20:36;;;;;;;23.45;3.10;;;3.70;99.90;;;;;;4985116;28;20486;-69
2022/01/05 06:23:02;;;;;;;24.77;4.00;;;3.70;99.90;;;;;;5001383;28;20445;-69
2022/01/05 06:25:27;;;;;;;19.48;3.13;;;3.70;99.90;;;;;;5018362;28;20092;-70
2022/01/05 06:27:53;;;;;;;15.43;2.95;;;3.70;99.90;;;;;;5018595;28;20050;-69
2022/01/05 06:30:19;;;;;;;11.63;2.88;;;3.70;99.90;;;;;;5001379;28;20187;-68
2022/01/05 06:32:46;;;;;;;13.73;2.42;;;3.70;99.90;;;;;;5001151;28;20041;-69
2022/01/05 06:35:13;;;;;;;19.00;2.80;;;3.70;99.90;;;;;;5018665;28;20061;-68
2022/01/05 06:37:38;;;;;;;21.33;3.53;;;3.80;99.90;;;;;;5018028;28;20046;-69
2022/01/05 06:40:04;;;;;;;13.20;2.88;;;3.80;99.90;;;;;;5018397;28;20068;-69
2022/01/05 06:42:30;;;;;;;24.45;4.00;;;3.80;99.90;;;;;;5000577;28;20056;-69
2022/01/05 06:44:55;;;;;;;15.32;3.35;;;3.80;99.90;;;;;;5000728;28;20462;-70
2022/01/05 06:47:21;;;;;;;24.23;3.72;;;3.90;99.90;;;;;;5017784;28;20046;-71
2022/01/05 06:49:47;;;;;;;18.92;3.08;;;3.90;99.90;;;;;;5018352;28;20052;-71
2022/01/05 06:52:12;;;;;;;19.63;3.05;;;3.90;99.90;;;;;;5017991;28;20137;-71
2022/01/05 06:54:42;;;;;;;17.30;3.60;;;3.90;99.90;;;;;;5000897;28;20089;-69
2022/01/05 06:57:10;;;;;;;15.20;2.80;;;4.00;99.90;;;;;;5017958;28;20038;-70
2022/01/05 06:59:37;;;;;;;22.92;2.90;;;4.00;99.90;;;;;;5000545;28;20062;-68
2022/01/05 07:02:04;;;;;;;19.02;2.88;;;4.00;99.90;;;;;;5000574;28;20085;-69
2022/01/05 07:04:29;;;;;;;16.85;2.88;;;4.00;99.90;;;;;;5018089;28;20374;-69
2022/01/05 07:06:55;;;;;;;18.83;3.15;;;4.00;99.90;;;;;;5000351;28;20107;-70
2022/01/05 07:09:20;;;;;;;12.23;2.67;;;4.00;99.90;;;;;;5000842;28;20464;-69
2022/01/05 07:11:46;;;;;;;17.05;2.83;;;4.00;99.90;;;;;;5017857;28;20370;-72
2022/01/05 07:14:12;;;;;;;13.30;3.10;;;4.00;99.90;;;;;;5017017;28;20121;-69
2022/01/05 07:16:37;;;;;;;16.00;2.92;;;4.10;99.90;;;;;;5000556;28;20600;-70
2022/01/05 07:19:03;;;;;;;10.60;2.42;;;4.10;99.90;;;;;;5000669;28;20081;-72
2022/01/05 07:21:33;;;;;;;8.63;1.70;;;4.10;99.90;;;;;;5017212;28;20061;-70
2022/01/05 07:23:59;;;;;;;15.35;2.28;;;4.10;99.90;;;;;;5000534;28;20090;-70
2022/01/05 07:26:27;;;;;;;12.48;2.05;;;4.10;99.90;;;;;;5000162;28;20050;-70
2022/01/05 07:28:53;;;;;;;7.97;1.80;;;4.10;99.90;;;;;;4983801;28;20038;-70
2022/01/05 07:31:19;;;;;;;11.02;2.08;;;4.10;99.90;;;;;;5000675;28;20048;-69
2022/01/05 07:33:45;;;;;;;11.98;2.03;;;4.10;99.90;;;;;;4999900;28;20458;-69
2022/01/05 07:36:10;;;;;;;8.52;1.80;;;4.10;99.90;;;;;;4999683;28;20423;-69
2022/01/05 07:38:36;;;;;;;8.35;1.85;;;4.10;99.90;;;;;;5017338;28;20104;-72
2022/01/05 07:41:01;;;;;;;13.32;2.35;;;4.10;99.90;;;;;;4999720;28;20378;-68
2022/01/05 07:43:27;;;;;;;19.25;2.83;;;4.10;99.90;;;;;;5016565;28;20046;-71
2022/01/05 07:45:54;;;;;;;10.00;1.80;;;4.10;99.90;;;;;;5016857;28;20065;-71
2022/01/05 07:48:19;;;;;;;18.35;2.35;;;4.20;99.90;;;;;;4999877;28;20065;-68
2022/01/05 07:50:45;;;;;;;16.90;2.17;;;4.20;99.90;;;;;;4999674;28;20359;-68
2022/01/05 07:53:10;;;;;;;21.40;2.60;;;4.20;99.90;;;;;;5016984;28;20049;-72
2022/01/05 07:55:37;;;;;;;13.60;2.58;;;4.20;99.90;;;;;;5016911;28;20042;-70
2022/01/05 07:58:03;;;;;;;17.52;1.85;;;4.20;99.90;;;;;;5016822;28;20061;-69
2022/01/05 08:00:28;;;;;;;15.82;2.13;;;4.20;99.90;;;;;;4999715;28;20053;-70
2022/01/05 08:02:54;;;;;;;12.88;2.40;;;4.50;99.90;;;;;;4999141;28;20050;-69
2022/01/05 08:05:20;;;;;;;15.90;2.10;;;4.30;99.90;;;;;;4999540;28;20053;-69
2022/01/05 08:07:45;;;;;;;18.17;2.22;;;4.30;99.90;;;;;;5016422;28;20148;-69
2022/01/05 08:10:11;;;;;;;10.52;2.10;;;4.40;99.90;;;;;;5016681;28;20422;-68
2022/01/05 08:12:38;;;;;;;17.38;2.20;;;4.50;99.90;;;;;;4998618;28;20038;-71
2022/01/05 08:15:04;;;;;;;18.92;2.45;;;4.50;99.90;;;;;;4999412;28;20374;-69
2022/01/05 08:17:30;;;;;;;22.80;3.15;;;4.60;99.90;;;;;;4998777;28;20050;-70
2022/01/05 08:19:55;;;;;;;17.38;2.15;;;4.60;99.90;;;;;;4998552;28;20057;-70
2022/01/05 08:22:21;;;;;;;17.60;2.47;;;4.70;99.90;;;;;;5016340;28;20057;-70
2022/01/05 08:24:47;;;;;;;13.40;2.30;;;4.70;99.90;;;;;;4999260;28;20050;-71
2022/01/05 08:27:12;;;;;;;21.73;2.58;;;4.70;99.90;;;;;;5016296;28;20037;-69
2022/01/05 08:29:38;;;;;;;12.48;1.75;;;4.70;99.90;;;;;;4998870;28;20099;-69
2022/01/05 08:32:04;;;;;;;10.07;1.60;;;4.70;99.90;;;;;;5169887;22;20060;-71
2022/01/05 08:34:31;;;;;;;11.13;1.90;;;4.70;99.90;;;;;;5055368;28;20053;-70
2022/01/05 08:36:57;;;;;;;12.45;2.28;;;4.70;99.90;;;;;;5055372;28;20053;-68
2022/01/05 08:39:23;;;;;;;11.35;1.90;;;4.70;99.90;;;;;;5055701;28;20045;-70
2022/01/05 08:41:49;;;;;;;14.02;2.00;;;4.80;99.90;;;;;;5038986;28;20048;-69
2022/01/05 08:44:15;;;;;;;15.35;2.30;;;4.80;99.90;;;;;;5055100;28;20365;-69
2022/01/05 08:46:41;;;;;;;15.63;1.90;;;4.80;99.90;;;;;;5038293;28;20060;-70
2022/01/05 08:49:06;;;;;;;13.05;2.00;;;4.80;99.90;;;;;;5055748;28;20056;-70
2022/01/05 08:51:32;;;;;;;17.70;2.88;;;4.80;99.90;;;;;;5055437;28;20116;-70
2022/01/05 08:53:58;;;;;;;14.13;2.47;;;4.90;99.90;;;;;;5038156;28;20519;-70
2022/01/05 08:56:25;;;;;;;14.40;2.20;;;4.80;99.90;;;;;;5037163;28;20476;-70
2022/01/05 08:58:51;;;;;;;12.02;1.88;;;4.90;99.90;;;;;;5054250;28;20093;-70
2022/01/05 09:01:17;;;;;;;18.42;2.33;;;5.00;99.90;;;;;;5055379;28;20482;-70
2022/01/05 09:03:42;;;;;;;15.73;2.30;;;5.00;99.90;;;;;;5070897;28;20163;-71
2022/01/05 09:06:08;;;;;;;15.82;2.75;;;5.10;99.90;;;;;;5053484;28;20105;-69
2022/01/05 09:08:34;;;;;;;14.00;2.90;;;5.20;99.90;;;;;;5054393;28;20461;-69
2022/01/05 09:11:00;;;;;;;19.45;2.88;;;5.30;99.90;;;;;;5054812;28;20052;-70
2022/01/05 09:13:26;;;;;;;18.50;2.70;;;5.30;99.90;;;;;;5054063;28;20045;-70
2022/01/05 09:15:52;;;;;;;23.75;2.97;;;5.30;99.90;;;;;;5055004;28;20044;-68
2022/01/05 09:18:18;;;;;;;20.20;2.80;;;5.40;99.90;;;;;;5054774;28;20487;-69
2022/01/05 09:20:44;;;;;;;15.40;2.22;;;5.40;99.90;;;;;;5054242;28;20049;-69
2022/01/05 09:23:09;;;;;;;26.38;3.08;;;5.30;99.90;;;;;;5055298;28;20102;-70
2022/01/05 09:25:35;;;;;;;17.05;3.00;;;5.30;99.90;;;;;;5055156;28;20057;-68
2022/01/05 09:28:01;;;;;;;16.85;2.15;;;5.20;99.90;;;;;;5054300;28;20053;-70
2022/01/05 09:30:28;;;;;;;18.13;2.80;;;5.20;99.90;;;;;;5054220;28;20044;-69
2022/01/05 09:32:54;;;;;;;12.55;2.17;;;5.10;99.90;;;;;;5055692;28;20091;-69
2022/01/05 09:35:22;;;;;;;16.63;2.20;;;5.10;99.90;;;;;;5056522;28;20468;-70
2022/01/05 09:43:13;;;;;;;17.65;2.47;;;5.10;99.90;;;;;;5073117;28;20102;-69
2022/01/05 09:45:51;;;;;;;14.82;2.50;;;5.10;99.90;;;;;;5074084;28;20436;-70
2022/01/05 09:48:37;;;;;;;13.90;2.88;;;5.10;99.90;;;;;;5056556;28;20040;-69
2022/01/05 09:51:06;;;;;;;14.55;2.92;;;5.20;99.90;;;;;;5057059;28;20048;-69
2022/01/05 09:53:33;;;;;;;15.48;2.72;;;5.30;99.90;;;;;;5040427;28;20052;-69
2022/01/05 09:55:59;;;;;;;13.55;2.90;;;5.30;99.90;;;;;;5056695;28;20060;-69
2022/01/05 09:58:27;;;;;;;16.27;2.80;;;5.40;99.90;;;;;;5074638;28;20060;-69
2022/01/05 10:00:53;;;;;;;18.27;2.95;;;5.40;99.90;;;;;;5056781;28;20048;-68
2022/01/05 10:03:21;;;;;;;16.10;2.50;;;5.50;99.90;;;;;;5056670;28;20471;-72
2022/01/05 10:05:46;;;;;;;15.65;2.80;;;5.50;99.90;;;;;;5056422;28;20049;-70
2022/01/05 10:08:12;;;;;;;21.77;3.08;;;5.60;99.90;;;;;;5056008;28;20114;-70
2022/01/05 10:10:38;;;;;;;17.40;2.55;;;5.60;99.90;;;;;;5056664;28;20127;-73
2022/01/05 10:13:04;;;;;;;13.43;2.63;;;5.70;99.90;;;;;;5056213;28;20059;-70
2022/01/05 10:15:30;;;;;;;17.85;2.53;;;5.70;99.90;;;;;;5074409;28;20048;-68
2022/01/05 10:18:16;;;;;;;13.30;2.33;;;5.70;99.90;;;;;;5074720;28;20080;-70
2022/01/05 10:21:05;;;;;;;15.88;2.83;;;5.70;99.90;;;;;;5056413;28;20049;-70
2022/01/05 10:23:41;;;;;;;26.02;3.25;;;5.80;99.90;;;;;;5056265;28;20095;-70
2022/01/05 10:26:27;;;;;;;26.90;3.38;;;5.80;99.90;;;;;;5074023;28;20047;-71
2022/01/05 10:28:56;;;;;;;17.80;2.88;;;5.90;99.90;;;;;;5056257;28;20080;-70
2022/01/05 10:31:25;;;;;;;23.52;3.15;;;6.00;99.90;;;;;;5057000;28;20045;-69
2022/01/05 10:33:51;;;;;;;13.93;2.85;;;6.00;99.90;;;;;;5055953;28;20456;-70
2022/01/05 10:36:17;;;;;;;12.30;2.30;;;6.00;99.90;;;;;;5056194;28;20059;-70
2022/01/05 10:38:55;;;;;;;20.67;3.10;;;6.00;99.90;;;;;;5073230;28;20051;-70
2022/01/05 10:41:22;;;;;;;15.32;2.53;;;6.00;99.90;;;;;;5059383;28;20044;-69
2022/01/05 10:44:12;;;;;;;14.02;2.67;;;6.00;99.90;;;;;;5077515;28;20045;-69
2022/01/05 10:46:43;;;;;;;12.75;2.45;;;6.10;99.90;;;;;;5077814;28;20041;-69
2022/01/05 10:49:10;;;;;;;15.27;2.40;;;6.10;99.90;;;;;;5059975;28;20044;-70
2022/01/05 10:51:36;;;;;;;17.38;2.80;;;6.10;99.90;;;;;;5060510;28;20372;-69
2022/01/05 10:54:20;;;;;;;15.82;3.25;;;6.10;99.90;;;;;;5077601;28;20055;-68
2022/01/05 10:56:46;;;;;;;14.07;3.35;;;6.20;99.90;;;;;;5077340;28;20131;-69
2022/01/05 10:59:16;;;;;;;14.82;3.20;;;6.20;99.90;;;;;;5059958;28;20094;-69
2022/01/05 11:01:42;;;;;;;23.55;3.13;;;6.30;99.90;;;;;;5059820;28;20425;-70
2022/01/05 11:04:16;;;;;;;23.95;3.10;;;6.40;99.90;;;;;;5059720;28;20044;-72
2022/01/05 11:07:03;;;;;;;17.92;3.00;;;6.50;99.90;;;;;;5059812;28;20060;-71
2022/01/05 11:09:32;;;;;;;25.02;3.72;;;6.60;99.90;;;;;;5076864;28;20071;-70
2022/01/05 11:11:58;;;;;;;21.35;3.05;;;6.60;99.90;;;;;;5076902;28;20041;-71
2022/01/05 11:14:29;;;;;;;23.98;3.20;;;6.70;99.90;;;;;;5077223;28;20048;-69
2022/01/05 11:16:58;;;;;;;16.92;3.05;;;6.80;99.90;;;;;;5077343;28;20476;-69
2022/01/05 11:19:29;;;;;;;29.92;4.10;;;6.90;99.90;;;;;;5043092;28;20373;-70
2022/01/05 11:22:05;;;;;;;18.88;3.30;;;6.90;99.90;;;;;;5059513;28;20095;-69
2022/01/05 11:24:46;;;;;;;25.02;3.67;;;6.80;99.90;;;;;;5059531;28;20067;-70
2022/01/05 11:27:14;;;;;;;27.08;3.47;;;6.90;99.90;;;;;;5059311;28;20080;-69
2022/01/05 11:29:40;;;;;;;24.98;3.90;;;6.90;99.90;;;;;;5059562;28;20139;-71
2022/01/05 11:32:09;;;;;;;21.55;4.22;;;6.90;99.90;;;;;;5076670;28;20052;-69
2022/01/05 11:34:35;;;;;;;28.88;3.75;;;6.90;99.90;;;;;;5059383;28;20113;-69
2022/01/05 11:37:01;;;;;;;25.25;4.22;;;6.90;99.90;;;;;;5058817;28;20131;-70
2022/01/05 11:39:29;;;;;;;23.08;3.88;;;7.00;99.90;;;;;;5058864;28;20048;-68
2022/01/05 11:41:56;;;;;;;22.45;4.07;;;7.00;99.90;;;;;;5076584;28;20041;-71
2022/01/05 11:44:27;;;;;;;25.30;4.28;;;7.10;99.90;;;;;;5076415;28;20044;-68
2022/01/05 11:46:53;;;;;;;30.88;3.58;;;7.20;99.90;;;;;;5076730;28;20063;-70
2022/01/05 11:49:28;;;;;;;19.90;3.80;;;7.20;99.90;;;;;;5076730;28;20055;-69
2022/01/05 11:51:59;;;;;;;28.42;3.97;;;7.30;99.90;;;;;;5058185;28;20372;-69
2022/01/05 11:54:32;;;;;;;20.63;3.25;;;7.20;99.90;;;;;;5058603;28;20121;-70
2022/01/05 11:57:10;;;;;;;22.67;4.32;;;7.30;99.90;;;;;;5075895;28;20041;-68
2022/01/05 11:59:38;;;;;;;22.27;3.80;;;7.30;99.90;;;;;;5076337;28;20056;-70
2022/01/05 12:02:07;;;;;;;25.77;3.47;;;7.30;99.90;;;;;;5058420;28;20120;-71
2022/01/05 12:04:56;;;;;;;25.00;3.95;;;7.40;99.90;;;;;;5058852;28;20063;-69
2022/01/05 12:07:43;;;;;;;22.95;4.28;;;7.60;99.90;;;;;;5058385;28;20044;-70
2022/01/05 12:10:21;;;;;;;22.10;4.28;;;7.50;99.90;;;;;;5056138;28;20049;-70
2022/01/05 12:13:06;;;;;;;20.02;3.30;;;7.50;99.90;;;;;;5055995;28;20049;-70
2022/01/05 12:15:53;;;;;;;28.45;4.03;;;7.50;99.90;;;;;;5038561;28;20060;-70
2022/01/05 12:18:26;;;;;;;22.20;3.55;;;7.40;99.90;;;;;;5056256;28;20069;-69
2022/01/05 12:20:53;;;;;;;18.65;3.50;;;7.40;99.90;;;;;;5055897;28;20102;-69
2022/01/05 12:23:24;;;;;;;13.20;2.70;;;7.40;99.90;;;;;;5055961;28;20364;-69
2022/01/05 12:26:07;;;;;;;21.10;3.15;;;7.40;99.90;;;;;;5055861;28;20044;-70
2022/01/05 12:28:38;;;;;;;;;;;7.40;99.90;;;;;;5056139;28;20473;-70
2022/01/05 12:31:04;;;;;;;23.85;3.42;;;7.40;99.90;;;;;;5056375;28;20010;-70
2022/01/05 12:33:46;;;;;;;15.55;2.80;;;7.50;99.90;;;;;;5055491;28;20082;-69
2022/01/05 12:36:14;;;;;;;20.13;4.03;;;7.60;99.90;;;;;;5055445;28;20048;-69
2022/01/05 12:38:51;;;;;;;18.45;2.83;;;7.60;99.90;;;;;;5065536;28;20403;-69
2022/01/05 12:41:41;;;;;;;14.20;2.58;;;7.60;99.90;;;;;;5075848;28;20059;-70
2022/01/05 12:44:15;;;;;;;20.50;3.35;;;7.50;99.90;;;;;;5075728;28;20046;-69
2022/01/05 12:46:42;;;;;;;22.38;3.88;;;7.50;99.90;;;;;;5075477;28;20058;-69
2022/01/05 12:49:26;;;;;;;21.48;3.42;;;7.40;99.90;;;;;;5075526;28;20033;-69
2022/01/05 12:52:02;;;;;;;16.95;3.28;;;7.30;99.90;;;;;;5075434;28;20105;-67
2022/01/05 12:54:31;;;;;;;23.80;3.83;;;7.30;99.90;;;;;;5075301;28;20106;-68
2022/01/05 12:57:02;;;;;;;19.40;2.88;;;7.20;99.90;;;;;;5074862;28;20056;-68